• Join FlightAware (Why Join?)
  • Login
  • US Flag 
12:42AM EDT


 

Airport Tracker/Info


-or-


 

Live Flight TrackerFlight Track Log ✈ A6-EWE ✈ 15-Apr-2013 ✈ SAEZ / EZE - SBGL / GIG

Flight Track Log - Related Links

Times and Time Zones

All times are in EDT time to prevent confusion due to time zone crossing. See the A6-EWE flight status page for this flight to view local times or setup timezone preferences in your user account.

Time Position Orientation Groundspeed Altitude Reporting Facility
EDT Latitude Longitude Course Direction KTS MPH feet Rate Location/Type
08:49PM -34.8240 -58.5250 100° East 173 199 400  Level FlightAware
08:49PM -34.8290 -58.5040 106° East 166 191 1,800 3,420 Climbing FlightAware
08:49PM -34.8380 -58.4890 126° Southeast 169 194 3,000 3,060 Climbing FlightAware
08:50PM -34.8530 -58.4690 132° Southeast 200 230 4,100 2,520 Climbing FlightAware
08:50PM -34.8600 -58.4540 120° Southeast 232 267 4,700 2,760 Climbing FlightAware
08:51PM -34.8690 -58.4110 104° East 270 311 6,200 3,600 Climbing FlightAware
08:51PM -34.8770 -58.3730 104° East 282 325 8,000 4,020 Climbing FlightAware
08:52PM -34.8900 -58.3100 104° East 295 339 10,600 2,940 Climbing FlightAware
08:52PM -34.9000 -58.2480 101° East 358 412 11,700 2,160 Climbing FlightAware
08:53PM -34.8920 -58.1920 80° East 401 461 12,800 3,120 Climbing FlightAware
08:53PM -34.8690 -58.1030 73° East 420 483 15,100 3,180 Climbing FlightAware
08:54PM -34.8450 -58.0120 72° East 439 505 17,100 3,060 Climbing FlightAware
08:55PM -34.8170 -57.9060 72° East 455 524 19,500 3,240 Climbing FlightAware
08:55PM -34.7910 -57.8060 72° East 467 537 21,700 3,000 Climbing FlightAware
08:56PM -34.7660 -57.7060 73° East 483 556 23,500 2,700 Climbing FlightAware
08:57PM -34.7340 -57.5860 72° East 496 571 25,600 2,880 Climbing FlightAware
08:57PM -34.6910 -57.4830 63° Northeast 513 590 27,600 2,640 Climbing FlightAware
08:58PM -34.6240 -57.3820 51° Northeast 526 605 29,400 2,100 Climbing FlightAware
08:59PM -34.5600 -57.2910 50° Northeast 543 625 30,600 2,400 Climbing FlightAware
09:00PM -34.4960 -57.1990 50° Northeast 536 617 32,600 2,700 Climbing FlightAware
09:00PM -34.4240 -57.0950 50° Northeast 532 612 34,500 2,400 Climbing FlightAware
09:01PM -34.3600 -57.0020 50° Northeast 530 610 36,000 1,860 Climbing FlightAware
09:02PM -34.2970 -56.9120 50° Northeast 531 611 37,000 660 Climbing FlightAware
09:02PM -34.2270 -56.8120 50° Northeast 532 612 37,000  Level FlightAware
09:03PM -34.1530 -56.7070 50° Northeast 532 612 37,000  Level FlightAware
09:04PM -34.0900 -56.6170 50° Northeast 532 612 37,000  Level FlightAware
09:04PM -34.0290 -56.5310 49° Northeast 532 612 37,000  Level FlightAware
09:05PM -33.9560 -56.4270 50° Northeast 533 613 37,000  Level FlightAware
09:06PM -33.8910 -56.3370 49° Northeast 534 615 37,000  Level FlightAware
09:07PM -33.8260 -56.2460 49° Northeast 536 617 37,000  Level FlightAware
09:07PM -33.7540 -56.1460 49° Northeast 536 617 37,000  Level FlightAware
09:08PM -33.6640 -56.0190 50° Northeast 537 618 37,000  Level FlightAware
09:09PM -33.5680 -55.8870 49° Northeast 537 618 37,000  Level FlightAware
09:10PM -33.5120 -55.8090 49° Northeast 535 616 37,000  Level FlightAware
09:11PM -33.4320 -55.6970 49° Northeast 536 617 37,000  Level FlightAware
09:11PM -33.3670 -55.6080 49° Northeast 536 617 37,000  Level FlightAware
09:12PM -33.3120 -55.5320 49° Northeast 536 617 37,000  Level FlightAware
09:13PM -33.2230 -55.4100 49° Northeast 37,000  Level FlightAware
09:13PM -33.1620 -55.3260 49° Northeast 538 619 37,000  Level FlightAware
09:15PM -33.1270 -55.2780 49° Northeast 540 621 37,000  Level FlightAware
09:15PM -33.0570 -55.1860 48° Northeast 540 621 37,000  Level FlightAware
09:16PM -33.1270 -55.2780 228° Southwest 37,000  Level FlightAware
09:17PM -32.8230 -54.8660 49° Northeast 537 618 37,000  Level FlightAware
09:17PM -32.7700 -54.7930 49° Northeast 536 617 37,000  Level FlightAware
09:18PM -32.6870 -54.6830 48° Northeast 537 618 37,000  Level FlightAware
09:19PM -32.6290 -54.6040 49° Northeast 537 618 37,000  Level FlightAware
09:20PM -32.5490 -54.4970 48° Northeast 538 619 37,000  Level FlightAware
09:20PM -32.4730 -54.3960 48° Northeast 539 620 37,000  Level FlightAware
09:21PM -32.4070 -54.3070 49° Northeast 538 619 37,000  Level FlightAware
09:22PM -32.3190 -54.1910 48° Northeast 539 620 37,000  Level FlightAware
09:23PM -32.2510 -54.0980 49° Northeast 538 619 37,000  Level FlightAware
09:23PM -32.1760 -53.9970 49° Northeast 538 619 37,000  Level FlightAware
09:24PM -32.1160 -53.9150 49° Northeast 538 619 37,000  Level FlightAware
09:25PM -32.0390 -53.8110 49° Northeast 539 620 37,000  Level FlightAware
09:25PM -31.9830 -53.7370 48° Northeast 540 621 37,000  Level FlightAware
09:26PM -31.9150 -53.6460 49° Northeast 540 621 37,000  Level FlightAware
09:27PM -31.8420 -53.5480 49° Northeast 540 621 37,000  Level FlightAware
09:27PM -31.7780 -53.4640 48° Northeast 540 621 37,000  Level FlightAware
09:28PM -31.6950 -53.3530 49° Northeast 541 623 37,000  Level FlightAware
09:30PM -31.5720 -53.1910 48° Northeast 542 624 37,000  Level FlightAware
09:30PM -31.5050 -53.1030 48° Northeast 542 624 37,000  Level FlightAware
09:31PM -31.5190 -53.1220 229° Southwest 543 625 37,000  Level FlightAware
09:32PM -31.3440 -52.8900 49° Northeast 543 625 37,000  Level FlightAware
09:33PM -31.2490 -52.7670 48° Northeast 543 625 37,000  Level FlightAware
09:33PM -31.1810 -52.6780 48° Northeast 543 625 37,000  Level FlightAware
09:34PM -31.1040 -52.5780 48° Northeast 544 626 37,000  Level FlightAware
09:35PM -31.0400 -52.4950 48° Northeast 543 625 37,000  Level FlightAware
09:36PM -30.9620 -52.3930 48° Northeast 544 626 37,000  Level FlightAware
09:36PM -30.8960 -52.3080 48° Northeast 544 626 37,000  Level FlightAware
09:37PM -30.8270 -52.2210 47° Northeast 545 627 37,000  Level FlightAware
09:38PM -30.7480 -52.1240 47° Northeast 543 625 37,000  Level FlightAware
09:38PM -30.6790 -52.0380 47° Northeast 542 624 37,000  Level FlightAware
09:39PM -30.6040 -51.9450 47° Northeast 542 624 37,000  Level FlightAware
09:40PM -30.5360 -51.8610 47° Northeast 542 624 37,000  Level FlightAware
09:40PM -30.4670 -51.7750 47° Northeast 542 624 37,000  Level FlightAware
09:41PM -30.3900 -51.6770 48° Northeast 542 624 37,000  Level FlightAware
09:42PM -30.3230 -51.5890 49° Northeast 541 623 37,000  Level FlightAware
09:43PM -30.2510 -51.4940 49° Northeast 539 620 37,000  Level FlightAware
09:43PM -30.1850 -51.4080 48° Northeast 539 620 37,000  Level FlightAware
09:44PM -30.1170 -51.3200 48° Northeast 538 619 37,000  Level FlightAware
09:45PM -30.0420 -51.2250 48° Northeast 538 619 37,000  Level FlightAware
09:45PM -29.9770 -51.1410 48° Northeast 537 618 37,000  Level FlightAware
09:46PM -29.8970 -51.0460 46° Northeast 536 617 37,000  Level FlightAware
09:47PM -29.8280 -50.9650 46° Northeast 536 617 37,000  Level FlightAware
09:47PM -29.7530 -50.8760 46° Northeast 536 617 37,000  Level FlightAware
09:48PM -29.6820 -50.7920 46° Northeast 536 617 37,000  Level FlightAware
09:49PM -29.6040 -50.6990 46° Northeast 535 616 37,000  Level FlightAware
09:50PM -29.5360 -50.6180 46° Northeast 533 613 37,000  Level FlightAware
09:50PM -29.4670 -50.5360 46° Northeast 532 612 37,000  Level FlightAware
09:51PM -29.4010 -50.4530 48° Northeast 533 613 37,000  Level FlightAware
09:52PM -29.3290 -50.3580 49° Northeast 530 610 37,000  Level FlightAware
09:52PM -29.2540 -50.2610 48° Northeast 529 609 37,000  Level FlightAware
09:53PM -29.1890 -50.1790 48° Northeast 527 606 37,000  Level FlightAware
09:54PM -29.1240 -50.0960 48° Northeast 525 604 37,000  Level FlightAware
09:54PM -29.0580 -50.0130 48° Northeast 524 603 37,000  Level FlightAware
09:55PM -28.9870 -49.9230 48° Northeast 523 602 37,000  Level FlightAware
09:56PM -28.9120 -49.8290 48° Northeast 523 602 37,000  Level FlightAware
09:57PM -28.8470 -49.7460 48° Northeast 524 603 37,000  Level FlightAware
09:57PM -28.7830 -49.6650 48° Northeast 524 603 37,000  Level FlightAware
09:58PM -28.7100 -49.5740 48° Northeast 522 601 37,000  Level FlightAware
09:59PM -28.6470 -49.4950 48° Northeast 521 600 37,000  Level FlightAware
09:59PM -28.5710 -49.4000 48° Northeast 521 600 37,000  Level FlightAware
10:00PM -28.5070 -49.3190 48° Northeast 522 601 37,000  Level FlightAware
10:01PM -28.4430 -49.2390 48° Northeast 522 601 37,000  Level FlightAware
10:01PM -28.3720 -49.1520 47° Northeast 524 603 37,000  Level FlightAware
10:02PM -28.3100 -49.0750 48° Northeast 524 603 37,000  Level FlightAware
10:03PM -28.2360 -48.9830 48° Northeast 521 600 37,000  Level FlightAware
10:04PM -28.1700 -48.9000 48° Northeast 520 598 37,000  Level FlightAware
10:04PM -28.1050 -48.8180 48° Northeast 521 600 37,000  Level FlightAware
10:05PM -28.0350 -48.7310 48° Northeast 521 600 37,000  Level FlightAware
10:06PM -27.9690 -48.6480 48° Northeast 521 600 37,000  Level FlightAware
10:06PM -27.9100 -48.5750 48° Northeast 523 602 37,000  Level FlightAware
10:07PM -27.8050 -48.4440 48° Northeast 520 598 37,000  Level FlightAware
10:09PM -27.6390 -48.2390 48° Northeast 516 594 37,000  Level FlightAware
10:10PM -27.5870 -48.1750 47° Northeast 517 595 37,000  Level FlightAware
10:11PM -27.6990 -48.3130 227° Southwest 517 595 37,000  Level FlightAware
10:11PM -27.6140 -48.2090 47° Northeast 516 594 37,000  Level FlightAware
10:12PM -27.5630 -48.1450 48° Northeast 518 596 37,000  Level FlightAware
10:13PM -27.5170 -48.0890 47° Northeast 519 597 37,000  Level FlightAware
10:14PM -27.4630 -48.0220 48° Northeast 521 600 37,000  Level FlightAware
10:14PM -27.4330 -47.9860 47° Northeast 521 600 37,000  Level FlightAware
10:15PM -27.3880 -47.9310 47° Northeast 521 600 37,000  Level FlightAware
10:16PM -27.3100 -47.8360 47° Northeast 520 598 37,000  Level FlightAware
10:16PM -27.2380 -47.7490 47° Northeast 518 596 37,000  Level FlightAware
10:17PM -27.1960 -47.6980 47° Northeast 517 595 37,000  Level FlightAware
10:18PM -26.7790 -47.1990 47° Northeast 509 586 37,000  Level FlightAware
10:18PM -26.7160 -47.1240 47° Northeast 510 587 37,000  Level FlightAware
10:19PM -27.0200 -47.4870 227° Southwest 520 598 37,000  Level FlightAware
10:20PM -26.9840 -47.4440 47° Northeast 518 596 37,000  Level FlightAware
10:21PM -26.9450 -47.3960 48° Northeast 514 592 37,000  Level FlightAware
10:21PM -26.9050 -47.3480 47° Northeast 513 590 37,000  Level FlightAware
10:22PM -26.8460 -47.2780 47° Northeast 513 590 37,000  Level FlightAware
10:23PM -26.7910 -47.2120 47° Northeast 513 590 37,000  Level FlightAware
10:23PM -26.2520 -46.5770 47° Northeast 514 592 37,000  Level FlightAware
10:24PM -26.1770 -46.4900 46° Northeast 514 592 37,000  Level FlightAware
10:25PM -26.1180 -46.4210 46° Northeast 515 593 37,000  Level FlightAware
10:25PM -26.0610 -46.3550 46° Northeast 514 592 37,000  Level FlightAware
10:26PM -25.9880 -46.2700 46° Northeast 516 594 37,000  Level FlightAware
10:27PM -25.9000 -46.1680 46° Northeast 514 592 37,000  Level FlightAware
10:28PM -25.8370 -46.0960 46° Northeast 512 589 37,000  Level FlightAware
10:28PM -25.7600 -46.0070 46° Northeast 508 585 37,000  Level FlightAware
10:29PM -25.7170 -45.9570 46° Northeast 505 581 37,000  Level FlightAware
10:30PM -25.6280 -45.8560 46° Northeast 505 581 37,000  Level FlightAware
10:30PM -25.5600 -45.7770 46° Northeast 505 581 37,000  Level FlightAware
10:31PM -25.5000 -45.7090 46° Northeast 505 581 37,000  Level FlightAware
10:32PM -25.4370 -45.6360 46° Northeast 503 579 37,000  Level FlightAware
10:32PM -25.3560 -45.5450 45° Northeast 504 580 37,000  Level FlightAware
10:33PM -25.2960 -45.4760 46° Northeast 506 582 37,000  Level FlightAware
10:34PM -25.2220 -45.3920 46° Northeast 508 585 37,000  Level FlightAware
10:35PM -25.1490 -45.3090 46° Northeast 507 583 37,000  Level FlightAware
10:35PM -25.0590 -45.2070 46° Northeast 509 586 37,000  Level FlightAware
10:36PM -25.0010 -45.1410 46° Northeast 510 587 37,000  Level FlightAware
10:37PM -24.9220 -45.0530 45° Northeast 509 586 37,000  Level FlightAware
10:37PM -24.8580 -44.9810 46° Northeast 509 586 37,000  Level FlightAware
10:38PM -24.7760 -44.9060 40° Northeast 494 568 37,000  Level FlightAware
10:39PM -24.7070 -44.8540 34° Northeast 495 570 37,000  Level FlightAware
10:40PM -24.6180 -44.7830 36° Northeast 497 572 37,000  Level FlightAware
10:40PM -24.5420 -44.7210 37° Northeast 498 573 37,000  Level FlightAware
10:41PM -24.4370 -44.6340 37° Northeast 497 572 37,000  Level FlightAware
10:42PM -24.3610 -44.5720 37° Northeast 495 570 37,000 -600 Level FlightAware
10:43PM -24.2820 -44.5080 36° Northeast 503 579 36,200 -1,320 Descending FlightAware
10:44PM -24.1840 -44.4230 38° Northeast 504 580 35,000 -1,200 Descending FlightAware
10:44PM -24.1330 -44.3700 43° Northeast 500 575 34,400 -1,500 Descending FlightAware
10:45PM -24.0440 -44.2760 44° Northeast 492 566 32,900 -1,140 Descending FlightAware
10:46PM -23.9830 -44.2120 44° Northeast 491 565 32,700 -2,100 Descending FlightAware
10:47PM -23.8840 -44.1090 44° Northeast 469 540 29,600 -2,820 Descending FlightAware
10:47PM -23.8220 -44.0440 44° Northeast 467 537 28,300 -1,380 Descending FlightAware
10:48PM -23.7600 -43.9790 44° Northeast 458 527 27,800 -1,860 Descending FlightAware
10:49PM -23.6200 -43.8310 44° Northeast 414 476 24,300 -2,280 Descending FlightAware
10:50PM -23.5600 -43.7660 45° Northeast 392 451 22,800 -1,800 Descending FlightAware
10:51PM -23.5100 -43.7110 45° Northeast 387 445 21,800 -1,500 Descending FlightAware
10:51PM -23.4680 -43.6750 38° Northeast 370 426 21,100 -1,500 Descending FlightAware
10:52PM -23.3880 -43.6700 North 348 400 19,800 -1,560 Descending FlightAware
10:53PM -23.3160 -43.6790 353° North 344 396 18,700 -1,500 Descending FlightAware
10:54PM -23.2540 -43.6880 352° North 342 394 17,700 -1,320 Descending FlightAware
10:54PM -23.1840 -43.6970 353° North 309 356 16,900 -1,500 Descending FlightAware
10:55PM -23.1280 -43.7040 353° North 293 337 15,600 -1,560 Descending FlightAware
10:56PM -23.0700 -43.7120 353° North 290 334 14,700 -900 Descending FlightAware
10:56PM -23.0210 -43.7180 354° North 289 333 14,400 -1,200 Descending FlightAware
10:57PM -22.9570 -43.7260 353° North 13,100 -1,320 Descending FlightAware
11:00PM -22.8776 -43.4665 72° East  Level Estimated
11:01PM -22.8429 -43.3538 72° East  Level Estimated
11:02PM -22.8089 -43.2436 72° East  Level Estimated
11:02PM -22.6620 -43.5640 72° East 213 245 6,900  Level FlightAware
11:03PM -22.6570 -43.5490 70° East 213 245 6,600 -780 Descending FlightAware
11:03PM -22.6650 -43.4980 100° East 212 244 6,000 -1,080 Descending FlightAware
11:04PM -22.6900 -43.4690 133° Southeast 207 238 5,000 -1,500 Descending FlightAware
11:05PM -22.7040 -43.4400 118° Southeast 199 229 4,400 -1,380 Descending FlightAware
11:05PM -22.7210 -43.4040 117° Southeast 180 207 3,300 -1,320 Descending FlightAware
11:06PM -22.7480 -43.3610 124° Southeast 171 197 2,100 -1,140 Descending FlightAware
11:07PM -22.7640 -43.3370 126° Southeast 152 175 1,600 -900 Descending FlightAware
11:07PM -22.7730 -43.3230 125° Southeast 148 170 1,300 -720 Descending FlightAware
11:08PM -22.7830 -43.3080 126° Southeast 148 170 1,000 -660 Descending FlightAware
11:08PM -22.7970 -43.2870 126° Southeast 148 170 600 -420 Descending FlightAware
11:09PM -22.8060 -43.2730 125° Southeast 148 170 600  Level FlightAware
11:11PM -22.8089 -43.2436 96° East  Level Estimated
11:12PM -22.8089 -43.2436 137° Southeast  Level Estimated
11:13PM -22.8089 -43.2436 137° Southeast  Level Estimated
11:14PM -22.8089 -43.2436 137° Southeast  Level Estimated
11:15PM -22.8089 -43.2436 137° Southeast  Level Estimated
11:16PM -22.8089 -43.2436 137° Southeast  Level Estimated
11:17PM -22.8089 -43.2436 137° Southeast  Level Estimated
11:18PM -22.8089 -43.2436 137° Southeast  Level Estimated
11:19PM -22.8089 -43.2436 137° Southeast  Level Estimated
11:20PM -22.8089 -43.2436 137° Southeast  Level Estimated
11:21PM -22.8089 -43.2436 137° Southeast  Level Estimated
11:22PM -22.8089 -43.2436 137° Southeast  Level Estimated
11:23PM -22.8089 -43.2436 137° Southeast  Level Estimated
11:24PM -22.8089 -43.2436 137° Southeast  Level Estimated
11:25PM -22.8089 -43.2436 137° Southeast  Level Estimated
11:26PM -22.8089 -43.2436 137° Southeast  Level Estimated
11:27PM -22.8089 -43.2436 137° Southeast  Level Estimated
11:28PM -22.8089 -43.2436 137° Southeast  Level Estimated
11:29PM -22.8089 -43.2436 137° Southeast  Level Estimated
11:30PM -22.8089 -43.2436 137° Southeast  Level Estimated
11:31PM -22.8089 -43.2436 137° Southeast  Level Estimated